sensor_id;sensor_type;location;lat;lon;timestamp;P1;durP1;ratioP1;P2;durP2;ratioP2
23060;SDS011;11698;47.690;9.132;2022-11-20T00:01:46;2.88;;;1.70;;
23060;SDS011;11698;47.690;9.132;2022-11-20T00:04:12;2.88;;;1.70;;
23060;SDS011;11698;47.690;9.132;2022-11-20T00:06:38;2.42;;;1.80;;
23060;SDS011;11698;47.690;9.132;2022-11-20T00:09:05;4.97;;;1.88;;
23060;SDS011;11698;47.690;9.132;2022-11-20T00:11:31;2.67;;;1.63;;
23060;SDS011;11698;47.690;9.132;2022-11-20T00:13:58;3.10;;;1.77;;
23060;SDS011;11698;47.690;9.132;2022-11-20T00:16:26;4.53;;;2.17;;
23060;SDS011;11698;47.690;9.132;2022-11-20T00:18:52;3.42;;;2.00;;
23060;SDS011;11698;47.690;9.132;2022-11-20T00:21:19;2.25;;;1.75;;
23060;SDS011;11698;47.690;9.132;2022-11-20T00:23:46;2.85;;;1.70;;
23060;SDS011;11698;47.690;9.132;2022-11-20T00:26:13;3.77;;;1.80;;
23060;SDS011;11698;47.690;9.132;2022-11-20T00:28:40;4.75;;;1.98;;
23060;SDS011;11698;47.690;9.132;2022-11-20T00:31:09;2.93;;;1.97;;
23060;SDS011;11698;47.690;9.132;2022-11-20T00:33:35;2.72;;;1.90;;
23060;SDS011;11698;47.690;9.132;2022-11-20T00:36:05;3.08;;;1.67;;
23060;SDS011;11698;47.690;9.132;2022-11-20T00:38:32;3.22;;;1.48;;
23060;SDS011;11698;47.690;9.132;2022-11-20T00:40:58;2.30;;;1.63;;
23060;SDS011;11698;47.690;9.132;2022-11-20T00:43:25;2.50;;;1.70;;
23060;SDS011;11698;47.690;9.132;2022-11-20T00:46:02;2.70;;;1.70;;
23060;SDS011;11698;47.690;9.132;2022-11-20T00:48:28;3.00;;;1.80;;
23060;SDS011;11698;47.690;9.132;2022-11-20T00:50:54;1.45;;;1.35;;
23060;SDS011;11698;47.690;9.132;2022-11-20T00:53:21;3.45;;;1.67;;
23060;SDS011;11698;47.690;9.132;2022-11-20T00:55:57;3.75;;;1.77;;
23060;SDS011;11698;47.690;9.132;2022-11-20T00:58:23;3.38;;;1.70;;
23060;SDS011;11698;47.690;9.132;2022-11-20T01:00:50;3.60;;;1.95;;
23060;SDS011;11698;47.690;9.132;2022-11-20T01:03:16;2.65;;;1.55;;
23060;SDS011;11698;47.690;9.132;2022-11-20T01:05:42;3.15;;;1.73;;
23060;SDS011;11698;47.690;9.132;2022-11-20T01:08:08;2.92;;;1.73;;
23060;SDS011;11698;47.690;9.132;2022-11-20T01:10:34;3.88;;;1.70;;
23060;SDS011;11698;47.690;9.132;2022-11-20T01:13:00;2.67;;;1.42;;
23060;SDS011;11698;47.690;9.132;2022-11-20T01:15:45;3.22;;;1.77;;
23060;SDS011;11698;47.690;9.132;2022-11-20T01:18:11;3.97;;;1.42;;
23060;SDS011;11698;47.690;9.132;2022-11-20T01:20:37;4.30;;;1.80;;
23060;SDS011;11698;47.690;9.132;2022-11-20T01:23:03;2.97;;;1.50;;
23060;SDS011;11698;47.690;9.132;2022-11-20T01:25:29;1.52;;;1.20;;
23060;SDS011;11698;47.690;9.132;2022-11-20T01:27:55;2.00;;;1.40;;
23060;SDS011;11698;47.690;9.132;2022-11-20T01:30:21;4.50;;;2.00;;
23060;SDS011;11698;47.690;9.132;2022-11-20T01:32:47;3.15;;;1.83;;
23060;SDS011;11698;47.690;9.132;2022-11-20T01:35:13;2.55;;;1.30;;
23060;SDS011;11698;47.690;9.132;2022-11-20T01:37:39;3.72;;;1.80;;
23060;SDS011;11698;47.690;9.132;2022-11-20T01:40:06;2.72;;;1.50;;
23060;SDS011;11698;47.690;9.132;2022-11-20T01:42:32;2.45;;;1.70;;
23060;SDS011;11698;47.690;9.132;2022-11-20T01:48:02;3.10;;;1.70;;
23060;SDS011;11698;47.690;9.132;2022-11-20T01:50:28;2.40;;;1.80;;
23060;SDS011;11698;47.690;9.132;2022-11-20T01:52:58;2.67;;;1.83;;
23060;SDS011;11698;47.690;9.132;2022-11-20T01:55:27;4.03;;;1.73;;
23060;SDS011;11698;47.690;9.132;2022-11-20T01:57:55;1.50;;;1.40;;
23060;SDS011;11698;47.690;9.132;2022-11-20T02:00:21;2.20;;;1.73;;
23060;SDS011;11698;47.690;9.132;2022-11-20T02:02:48;1.90;;;1.10;;
23060;SDS011;11698;47.690;9.132;2022-11-20T02:07:57;2.15;;;1.33;;
23060;SDS011;11698;47.690;9.132;2022-11-20T02:10:23;1.80;;;1.23;;
23060;SDS011;11698;47.690;9.132;2022-11-20T02:12:49;2.55;;;1.38;;
23060;SDS011;11698;47.690;9.132;2022-11-20T02:15:34;1.97;;;1.40;;
23060;SDS011;11698;47.690;9.132;2022-11-20T02:18:00;1.90;;;1.30;;
23060;SDS011;11698;47.690;9.132;2022-11-20T02:20:27;2.37;;;1.37;;
23060;SDS011;11698;47.690;9.132;2022-11-20T02:25:19;3.40;;;1.40;;
23060;SDS011;11698;47.690;9.132;2022-11-20T02:27:45;1.48;;;1.27;;
23060;SDS011;11698;47.690;9.132;2022-11-20T02:30:11;2.65;;;1.60;;
23060;SDS011;11698;47.690;9.132;2022-11-20T02:32:38;2.67;;;1.50;;
23060;SDS011;11698;47.690;9.132;2022-11-20T02:37:47;2.28;;;1.35;;
23060;SDS011;11698;47.690;9.132;2022-11-20T02:40:14;2.63;;;1.75;;
23060;SDS011;11698;47.690;9.132;2022-11-20T02:42:40;1.77;;;0.98;;
23060;SDS011;11698;47.690;9.132;2022-11-20T02:45:06;3.60;;;1.48;;
23060;SDS011;11698;47.690;9.132;2022-11-20T02:47:33;2.97;;;1.70;;
23060;SDS011;11698;47.690;9.132;2022-11-20T02:49:59;3.00;;;1.85;;
23060;SDS011;11698;47.690;9.132;2022-11-20T02:52:25;2.30;;;1.75;;
23060;SDS011;11698;47.690;9.132;2022-11-20T02:54:51;2.22;;;1.92;;
23060;SDS011;11698;47.690;9.132;2022-11-20T02:57:17;2.20;;;1.55;;
23060;SDS011;11698;47.690;9.132;2022-11-20T02:59:43;1.65;;;1.55;;
23060;SDS011;11698;47.690;9.132;2022-11-20T03:02:10;3.45;;;1.50;;
23060;SDS011;11698;47.690;9.132;2022-11-20T03:04:36;2.20;;;1.58;;
23060;SDS011;11698;47.690;9.132;2022-11-20T03:07:02;2.50;;;1.80;;
23060;SDS011;11698;47.690;9.132;2022-11-20T03:09:28;2.40;;;1.83;;
23060;SDS011;11698;47.690;9.132;2022-11-20T03:11:54;2.00;;;1.60;;
23060;SDS011;11698;47.690;9.132;2022-11-20T03:14:20;2.13;;;1.60;;
23060;SDS011;11698;47.690;9.132;2022-11-20T03:16:46;2.13;;;1.67;;
23060;SDS011;11698;47.690;9.132;2022-11-20T03:19:12;4.03;;;1.80;;
23060;SDS011;11698;47.690;9.132;2022-11-20T03:21:39;2.55;;;1.90;;
23060;SDS011;11698;47.690;9.132;2022-11-20T03:24:05;2.88;;;1.70;;
23060;SDS011;11698;47.690;9.132;2022-11-20T03:26:31;3.13;;;1.80;;
23060;SDS011;11698;47.690;9.132;2022-11-20T03:28:58;2.00;;;1.52;;
23060;SDS011;11698;47.690;9.132;2022-11-20T03:31:26;2.50;;;1.60;;
23060;SDS011;11698;47.690;9.132;2022-11-20T03:33:52;1.80;;;1.13;;
23060;SDS011;11698;47.690;9.132;2022-11-20T03:36:19;2.25;;;1.13;;
23060;SDS011;11698;47.690;9.132;2022-11-20T03:38:45;2.10;;;1.40;;
23060;SDS011;11698;47.690;9.132;2022-11-20T03:41:13;1.40;;;1.30;;
23060;SDS011;11698;47.690;9.132;2022-11-20T03:43:39;1.58;;;1.35;;
23060;SDS011;11698;47.690;9.132;2022-11-20T03:46:05;2.50;;;1.40;;
23060;SDS011;11698;47.690;9.132;2022-11-20T03:48:32;2.42;;;1.92;;
23060;SDS011;11698;47.690;9.132;2022-11-20T03:51:11;2.67;;;1.73;;
23060;SDS011;11698;47.690;9.132;2022-11-20T03:53:38;3.00;;;1.70;;
23060;SDS011;11698;47.690;9.132;2022-11-20T03:56:04;2.65;;;1.73;;
23060;SDS011;11698;47.690;9.132;2022-11-20T03:58:30;2.42;;;1.30;;
23060;SDS011;11698;47.690;9.132;2022-11-20T04:00:56;3.83;;;1.50;;
23060;SDS011;11698;47.690;9.132;2022-11-20T04:03:22;2.00;;;1.70;;
23060;SDS011;11698;47.690;9.132;2022-11-20T04:05:48;3.05;;;1.58;;
23060;SDS011;11698;47.690;9.132;2022-11-20T04:08:14;2.38;;;1.70;;
23060;SDS011;11698;47.690;9.132;2022-11-20T04:10:40;2.55;;;1.60;;
23060;SDS011;11698;47.690;9.132;2022-11-20T04:13:06;2.55;;;1.80;;
23060;SDS011;11698;47.690;9.132;2022-11-20T04:15:32;1.88;;;1.50;;
23060;SDS011;11698;47.690;9.132;2022-11-20T04:17:58;3.38;;;1.77;;
23060;SDS011;11698;47.690;9.132;2022-11-20T04:20:24;3.30;;;1.50;;
23060;SDS011;11698;47.690;9.132;2022-11-20T04:22:52;2.07;;;1.83;;
23060;SDS011;11698;47.690;9.132;2022-11-20T04:25:19;3.17;;;1.65;;
23060;SDS011;11698;47.690;9.132;2022-11-20T04:27:45;2.47;;;1.65;;
23060;SDS011;11698;47.690;9.132;2022-11-20T04:30:11;2.30;;;1.45;;
23060;SDS011;11698;47.690;9.132;2022-11-20T04:32:37;1.40;;;1.30;;
23060;SDS011;11698;47.690;9.132;2022-11-20T04:35:04;1.10;;;0.98;;
23060;SDS011;11698;47.690;9.132;2022-11-20T04:37:30;1.27;;;1.00;;
23060;SDS011;11698;47.690;9.132;2022-11-20T04:39:56;2.15;;;1.13;;
23060;SDS011;11698;47.690;9.132;2022-11-20T04:42:22;1.75;;;0.60;;
23060;SDS011;11698;47.690;9.132;2022-11-20T04:44:54;1.90;;;0.90;;
23060;SDS011;11698;47.690;9.132;2022-11-20T04:47:21;3.75;;;1.30;;
23060;SDS011;11698;47.690;9.132;2022-11-20T04:49:47;2.53;;;1.10;;
23060;SDS011;11698;47.690;9.132;2022-11-20T04:52:13;1.10;;;0.75;;
23060;SDS011;11698;47.690;9.132;2022-11-20T04:54:39;0.73;;;0.73;;
23060;SDS011;11698;47.690;9.132;2022-11-20T04:57:05;0.82;;;0.80;;
23060;SDS011;11698;47.690;9.132;2022-11-20T04:59:31;1.08;;;0.80;;
23060;SDS011;11698;47.690;9.132;2022-11-20T05:01:57;0.77;;;0.63;;
23060;SDS011;11698;47.690;9.132;2022-11-20T05:04:23;1.38;;;0.52;;
23060;SDS011;11698;47.690;9.132;2022-11-20T05:06:49;1.70;;;0.80;;
23060;SDS011;11698;47.690;9.132;2022-11-20T05:09:15;1.45;;;0.85;;
23060;SDS011;11698;47.690;9.132;2022-11-20T05:11:42;1.70;;;0.50;;
23060;SDS011;11698;47.690;9.132;2022-11-20T05:14:08;1.10;;;0.70;;
23060;SDS011;11698;47.690;9.132;2022-11-20T05:16:49;1.33;;;0.77;;
23060;SDS011;11698;47.690;9.132;2022-11-20T05:19:15;0.73;;;0.65;;
23060;SDS011;11698;47.690;9.132;2022-11-20T05:21:41;1.77;;;0.80;;
23060;SDS011;11698;47.690;9.132;2022-11-20T05:24:07;3.40;;;1.02;;
23060;SDS011;11698;47.690;9.132;2022-11-20T05:26:33;2.30;;;0.95;;
23060;SDS011;11698;47.690;9.132;2022-11-20T05:28:59;1.88;;;1.20;;
23060;SDS011;11698;47.690;9.132;2022-11-20T05:31:25;1.42;;;1.00;;
23060;SDS011;11698;47.690;9.132;2022-11-20T05:33:51;1.67;;;1.00;;
23060;SDS011;11698;47.690;9.132;2022-11-20T05:36:17;1.80;;;0.98;;
23060;SDS011;11698;47.690;9.132;2022-11-20T05:38:43;2.20;;;0.70;;
23060;SDS011;11698;47.690;9.132;2022-11-20T05:41:12;1.65;;;0.80;;
23060;SDS011;11698;47.690;9.132;2022-11-20T05:43:39;2.15;;;0.65;;
23060;SDS011;11698;47.690;9.132;2022-11-20T05:46:06;1.45;;;0.63;;
23060;SDS011;11698;47.690;9.132;2022-11-20T05:48:33;0.95;;;0.68;;
23060;SDS011;11698;47.690;9.132;2022-11-20T05:51:00;1.50;;;0.80;;
23060;SDS011;11698;47.690;9.132;2022-11-20T05:53:27;2.13;;;0.80;;
23060;SDS011;11698;47.690;9.132;2022-11-20T05:56:06;3.30;;;1.38;;
23060;SDS011;11698;47.690;9.132;2022-11-20T05:58:33;3.83;;;1.70;;
23060;SDS011;11698;47.690;9.132;2022-11-20T06:03:34;2.30;;;1.50;;
23060;SDS011;11698;47.690;9.132;2022-11-20T06:06:00;1.60;;;1.13;;
23060;SDS011;11698;47.690;9.132;2022-11-20T06:08:26;1.30;;;0.90;;
23060;SDS011;11698;47.690;9.132;2022-11-20T06:10:52;1.65;;;0.60;;
23060;SDS011;11698;47.690;9.132;2022-11-20T06:13:18;1.60;;;1.00;;
23060;SDS011;11698;47.690;9.132;2022-11-20T06:15:51;1.40;;;0.90;;
23060;SDS011;11698;47.690;9.132;2022-11-20T06:18:18;0.88;;;0.75;;
23060;SDS011;11698;47.690;9.132;2022-11-20T06:20:44;2.78;;;0.90;;
23060;SDS011;11698;47.690;9.132;2022-11-20T06:23:10;2.70;;;1.25;;
23060;SDS011;11698;47.690;9.132;2022-11-20T06:25:37;3.67;;;0.88;;
23060;SDS011;11698;47.690;9.132;2022-11-20T06:28:03;1.33;;;0.70;;
23060;SDS011;11698;47.690;9.132;2022-11-20T06:30:29;0.70;;;0.70;;
23060;SDS011;11698;47.690;9.132;2022-11-20T06:32:55;1.60;;;1.00;;
23060;SDS011;11698;47.690;9.132;2022-11-20T06:35:22;1.55;;;0.95;;
23060;SDS011;11698;47.690;9.132;2022-11-20T06:37:48;0.90;;;0.90;;
23060;SDS011;11698;47.690;9.132;2022-11-20T06:40:14;0.90;;;0.80;;
23060;SDS011;11698;47.690;9.132;2022-11-20T06:42:40;1.35;;;0.90;;
23060;SDS011;11698;47.690;9.132;2022-11-20T06:45:06;0.80;;;0.80;;
23060;SDS011;11698;47.690;9.132;2022-11-20T06:47:32;1.60;;;1.15;;
23060;SDS011;11698;47.690;9.132;2022-11-20T06:49:58;1.13;;;0.93;;
23060;SDS011;11698;47.690;9.132;2022-11-20T06:52:24;1.77;;;1.10;;
23060;SDS011;11698;47.690;9.132;2022-11-20T06:54:50;1.52;;;0.80;;
23060;SDS011;11698;47.690;9.132;2022-11-20T06:57:16;1.15;;;0.80;;
23060;SDS011;11698;47.690;9.132;2022-11-20T06:59:42;0.80;;;0.70;;
23060;SDS011;11698;47.690;9.132;2022-11-20T07:02:11;2.67;;;0.82;;
23060;SDS011;11698;47.690;9.132;2022-11-20T07:04:38;1.40;;;0.85;;
23060;SDS011;11698;47.690;9.132;2022-11-20T07:07:04;1.13;;;0.60;;
23060;SDS011;11698;47.690;9.132;2022-11-20T07:09:31;1.40;;;0.57;;
23060;SDS011;11698;47.690;9.132;2022-11-20T07:11:57;0.90;;;0.70;;
23060;SDS011;11698;47.690;9.132;2022-11-20T07:14:23;1.42;;;0.80;;
23060;SDS011;11698;47.690;9.132;2022-11-20T07:16:49;2.65;;;0.90;;
23060;SDS011;11698;47.690;9.132;2022-11-20T07:19:15;0.75;;;0.70;;
23060;SDS011;11698;47.690;9.132;2022-11-20T07:21:41;0.70;;;0.70;;
23060;SDS011;11698;47.690;9.132;2022-11-20T07:24:07;0.85;;;0.82;;
23060;SDS011;11698;47.690;9.132;2022-11-20T07:26:33;2.00;;;0.80;;
23060;SDS011;11698;47.690;9.132;2022-11-20T07:29:19;1.25;;;0.63;;
23060;SDS011;11698;47.690;9.132;2022-11-20T07:31:45;2.53;;;0.80;;
23060;SDS011;11698;47.690;9.132;2022-11-20T07:34:11;1.00;;;0.73;;
23060;SDS011;11698;47.690;9.132;2022-11-20T07:36:37;1.58;;;0.85;;
23060;SDS011;11698;47.690;9.132;2022-11-20T07:39:03;1.20;;;0.70;;
23060;SDS011;11698;47.690;9.132;2022-11-20T07:41:29;1.08;;;0.55;;
23060;SDS011;11698;47.690;9.132;2022-11-20T07:43:56;1.35;;;0.70;;
23060;SDS011;11698;47.690;9.132;2022-11-20T07:46:22;0.90;;;0.70;;
23060;SDS011;11698;47.690;9.132;2022-11-20T07:48:48;1.05;;;0.88;;
23060;SDS011;11698;47.690;9.132;2022-11-20T07:51:14;0.70;;;0.60;;
23060;SDS011;11698;47.690;9.132;2022-11-20T07:53:40;0.50;;;0.50;;
23060;SDS011;11698;47.690;9.132;2022-11-20T07:56:06;1.10;;;0.70;;
23060;SDS011;11698;47.690;9.132;2022-11-20T07:58:32;0.93;;;0.75;;
23060;SDS011;11698;47.690;9.132;2022-11-20T08:01:03;0.70;;;0.50;;
23060;SDS011;11698;47.690;9.132;2022-11-20T08:03:29;1.58;;;0.80;;
23060;SDS011;11698;47.690;9.132;2022-11-20T08:05:58;1.90;;;0.82;;
23060;SDS011;11698;47.690;9.132;2022-11-20T08:08:24;1.05;;;0.70;;
23060;SDS011;11698;47.690;9.132;2022-11-20T08:10:50;1.45;;;0.60;;
23060;SDS011;11698;47.690;9.132;2022-11-20T08:13:16;1.20;;;0.70;;
23060;SDS011;11698;47.690;9.132;2022-11-20T08:16:01;0.90;;;0.63;;
23060;SDS011;11698;47.690;9.132;2022-11-20T08:18:27;0.75;;;0.55;;
23060;SDS011;11698;47.690;9.132;2022-11-20T08:20:53;0.73;;;0.73;;
23060;SDS011;11698;47.690;9.132;2022-11-20T08:23:19;0.80;;;0.63;;
23060;SDS011;11698;47.690;9.132;2022-11-20T08:25:48;1.23;;;0.60;;
23060;SDS011;11698;47.690;9.132;2022-11-20T08:28:15;0.98;;;0.50;;
23060;SDS011;11698;47.690;9.132;2022-11-20T08:30:41;2.15;;;0.70;;
23060;SDS011;11698;47.690;9.132;2022-11-20T08:33:08;0.70;;;0.70;;
23060;SDS011;11698;47.690;9.132;2022-11-20T08:35:35;1.48;;;0.93;;
23060;SDS011;11698;47.690;9.132;2022-11-20T08:38:02;1.40;;;0.80;;
23060;SDS011;11698;47.690;9.132;2022-11-20T08:40:28;1.38;;;0.60;;
23060;SDS011;11698;47.690;9.132;2022-11-20T08:42:54;0.83;;;0.70;;
23060;SDS011;11698;47.690;9.132;2022-11-20T08:45:20;1.08;;;0.57;;
23060;SDS011;11698;47.690;9.132;2022-11-20T08:47:47;0.40;;;0.40;;
23060;SDS011;11698;47.690;9.132;2022-11-20T08:50:14;1.90;;;0.80;;
23060;SDS011;11698;47.690;9.132;2022-11-20T08:52:40;1.27;;;0.70;;
23060;SDS011;11698;47.690;9.132;2022-11-20T08:55:06;1.63;;;0.90;;
23060;SDS011;11698;47.690;9.132;2022-11-20T08:57:33;0.52;;;0.52;;
23060;SDS011;11698;47.690;9.132;2022-11-20T08:59:59;1.05;;;0.95;;
23060;SDS011;11698;47.690;9.132;2022-11-20T09:02:25;0.93;;;0.80;;
23060;SDS011;11698;47.690;9.132;2022-11-20T09:04:52;2.17;;;0.80;;
23060;SDS011;11698;47.690;9.132;2022-11-20T09:07:21;1.70;;;0.80;;
23060;SDS011;11698;47.690;9.132;2022-11-20T09:09:47;1.70;;;1.00;;
23060;SDS011;11698;47.690;9.132;2022-11-20T09:12:13;1.23;;;0.75;;
23060;SDS011;11698;47.690;9.132;2022-11-20T09:14:39;1.00;;;0.80;;
23060;SDS011;11698;47.690;9.132;2022-11-20T09:17:05;0.75;;;0.70;;
23060;SDS011;11698;47.690;9.132;2022-11-20T09:19:32;1.88;;;0.65;;
23060;SDS011;11698;47.690;9.132;2022-11-20T09:21:58;0.60;;;0.57;;
23060;SDS011;11698;47.690;9.132;2022-11-20T09:24:25;1.65;;;0.70;;
23060;SDS011;11698;47.690;9.132;2022-11-20T09:26:51;1.05;;;0.73;;
23060;SDS011;11698;47.690;9.132;2022-11-20T09:29:17;1.33;;;0.70;;
23060;SDS011;11698;47.690;9.132;2022-11-20T09:31:43;0.70;;;0.52;;
23060;SDS011;11698;47.690;9.132;2022-11-20T09:34:09;1.08;;;0.77;;
23060;SDS011;11698;47.690;9.132;2022-11-20T09:36:35;1.40;;;0.73;;
23060;SDS011;11698;47.690;9.132;2022-11-20T09:39:01;1.40;;;0.70;;
23060;SDS011;11698;47.690;9.132;2022-11-20T09:51:50;0.80;;;0.40;;
23060;SDS011;11698;47.690;9.132;2022-11-20T09:54:18;1.38;;;0.63;;
23060;SDS011;11698;47.690;9.132;2022-11-20T09:56:45;0.40;;;0.20;;
23060;SDS011;11698;47.690;9.132;2022-11-20T09:59:23;1.90;;;0.95;;
23060;SDS011;11698;47.690;9.132;2022-11-20T10:01:52;0.60;;;0.60;;
23060;SDS011;11698;47.690;9.132;2022-11-20T10:04:19;0.57;;;0.57;;
23060;SDS011;11698;47.690;9.132;2022-11-20T10:06:56;1.33;;;0.40;;
23060;SDS011;11698;47.690;9.132;2022-11-20T10:09:31;0.40;;;0.40;;
23060;SDS011;11698;47.690;9.132;2022-11-20T10:19:45;3.03;;;1.40;;
23060;SDS011;11698;47.690;9.132;2022-11-20T10:29:41;3.65;;;1.60;;
23060;SDS011;11698;47.690;9.132;2022-11-20T10:32:14;3.13;;;1.73;;
23060;SDS011;11698;47.690;9.132;2022-11-20T10:34:57;4.30;;;2.05;;
23060;SDS011;11698;47.690;9.132;2022-11-20T10:37:26;6.80;;;3.43;;
23060;SDS011;11698;47.690;9.132;2022-11-20T10:42:30;3.65;;;1.85;;
23060;SDS011;11698;47.690;9.132;2022-11-20T10:44:58;0.82;;;0.60;;
23060;SDS011;11698;47.690;9.132;2022-11-20T10:47:30;0.70;;;0.70;;
23060;SDS011;11698;47.690;9.132;2022-11-20T10:49:57;1.40;;;0.60;;
23060;SDS011;11698;47.690;9.132;2022-11-20T10:58:01;0.28;;;0.22;;
23060;SDS011;11698;47.690;9.132;2022-11-20T11:00:32;1.05;;;0.40;;
23060;SDS011;11698;47.690;9.132;2022-11-20T11:02:58;1.02;;;0.35;;
23060;SDS011;11698;47.690;9.132;2022-11-20T11:07:54;0.70;;;0.30;;
23060;SDS011;11698;47.690;9.132;2022-11-20T11:13:06;1.20;;;0.40;;
23060;SDS011;11698;47.690;9.132;2022-11-20T11:15:39;1.20;;;0.60;;
23060;SDS011;11698;47.690;9.132;2022-11-20T11:18:09;0.73;;;0.50;;
23060;SDS011;11698;47.690;9.132;2022-11-20T11:20:35;0.82;;;0.40;;
23060;SDS011;11698;47.690;9.132;2022-11-20T11:23:01;1.50;;;0.55;;
23060;SDS011;11698;47.690;9.132;2022-11-20T11:25:31;0.38;;;0.38;;
23060;SDS011;11698;47.690;9.132;2022-11-20T11:28:04;0.80;;;0.70;;
23060;SDS011;11698;47.690;9.132;2022-11-20T11:30:40;0.60;;;0.50;;
23060;SDS011;11698;47.690;9.132;2022-11-20T11:33:09;1.15;;;0.50;;
23060;SDS011;11698;47.690;9.132;2022-11-20T11:35:39;0.40;;;0.40;;
23060;SDS011;11698;47.690;9.132;2022-11-20T11:38:14;1.25;;;0.70;;
23060;SDS011;11698;47.690;9.132;2022-11-20T11:40:42;0.40;;;0.30;;
23060;SDS011;11698;47.690;9.132;2022-11-20T11:43:19;0.45;;;0.45;;
23060;SDS011;11698;47.690;9.132;2022-11-20T11:46:14;0.45;;;0.43;;
23060;SDS011;11698;47.690;9.132;2022-11-20T11:54:23;0.43;;;0.43;;
23060;SDS011;11698;47.690;9.132;2022-11-20T11:56:49;1.95;;;0.60;;
23060;SDS011;11698;47.690;9.132;2022-11-20T11:59:33;0.50;;;0.30;;
23060;SDS011;11698;47.690;9.132;2022-11-20T12:02:20;0.82;;;0.60;;
23060;SDS011;11698;47.690;9.132;2022-11-20T12:04:54;3.67;;;1.57;;
23060;SDS011;11698;47.690;9.132;2022-11-20T12:07:45;11.57;;;5.32;;
23060;SDS011;11698;47.690;9.132;2022-11-20T12:10:22;4.20;;;1.23;;
23060;SDS011;11698;47.690;9.132;2022-11-20T12:12:50;0.80;;;0.70;;
23060;SDS011;11698;47.690;9.132;2022-11-20T12:15:35;0.77;;;0.60;;
23060;SDS011;11698;47.690;9.132;2022-11-20T12:18:04;3.42;;;1.27;;
23060;SDS011;11698;47.690;9.132;2022-11-20T12:20:35;4.40;;;1.70;;
23060;SDS011;11698;47.690;9.132;2022-11-20T12:23:07;1.77;;;1.10;;
23060;SDS011;11698;47.690;9.132;2022-11-20T12:25:36;1.52;;;1.00;;
23060;SDS011;11698;47.690;9.132;2022-11-20T12:30:28;1.00;;;0.60;;
23060;SDS011;11698;47.690;9.132;2022-11-20T12:33:04;1.05;;;0.60;;
23060;SDS011;11698;47.690;9.132;2022-11-20T12:40:35;1.80;;;0.25;;
23060;SDS011;11698;47.690;9.132;2022-11-20T12:46:13;1.73;;;0.93;;
23060;SDS011;11698;47.690;9.132;2022-11-20T12:56:39;1.20;;;0.60;;
23060;SDS011;11698;47.690;9.132;2022-11-20T13:06:54;0.73;;;0.70;;
23060;SDS011;11698;47.690;9.132;2022-11-20T13:09:20;1.45;;;0.45;;
23060;SDS011;11698;47.690;9.132;2022-11-20T13:11:50;1.35;;;0.57;;
23060;SDS011;11698;47.690;9.132;2022-11-20T13:16:47;0.90;;;0.38;;
23060;SDS011;11698;47.690;9.132;2022-11-20T13:19:18;1.00;;;0.60;;
23060;SDS011;11698;47.690;9.132;2022-11-20T13:21:45;1.67;;;0.90;;
23060;SDS011;11698;47.690;9.132;2022-11-20T13:24:21;2.20;;;0.75;;
23060;SDS011;11698;47.690;9.132;2022-11-20T13:26:59;2.88;;;0.85;;
23060;SDS011;11698;47.690;9.132;2022-11-20T13:29:25;0.60;;;0.35;;
23060;SDS011;11698;47.690;9.132;2022-11-20T13:32:00;0.52;;;0.20;;
23060;SDS011;11698;47.690;9.132;2022-11-20T13:34:27;3.33;;;1.10;;
23060;SDS011;11698;47.690;9.132;2022-11-20T13:36:54;0.80;;;0.68;;
23060;SDS011;11698;47.690;9.132;2022-11-20T13:39:24;1.10;;;0.90;;
23060;SDS011;11698;47.690;9.132;2022-11-20T13:41:57;1.03;;;0.40;;
23060;SDS011;11698;47.690;9.132;2022-11-20T13:44:25;1.50;;;0.80;;
23060;SDS011;11698;47.690;9.132;2022-11-20T13:46:53;1.20;;;0.70;;
23060;SDS011;11698;47.690;9.132;2022-11-20T13:51:49;0.80;;;0.80;;
23060;SDS011;11698;47.690;9.132;2022-11-20T14:02:09;1.20;;;0.43;;
23060;SDS011;11698;47.690;9.132;2022-11-20T14:04:36;1.05;;;0.55;;
23060;SDS011;11698;47.690;9.132;2022-11-20T14:07:05;2.35;;;0.52;;
23060;SDS011;11698;47.690;9.132;2022-11-20T14:09:32;1.00;;;0.85;;
23060;SDS011;11698;47.690;9.132;2022-11-20T14:11:59;0.70;;;0.40;;
23060;SDS011;11698;47.690;9.132;2022-11-20T14:14:25;0.50;;;0.30;;
23060;SDS011;11698;47.690;9.132;2022-11-20T14:16:53;1.55;;;0.65;;
23060;SDS011;11698;47.690;9.132;2022-11-20T14:19:30;1.60;;;0.50;;
23060;SDS011;11698;47.690;9.132;2022-11-20T14:22:10;0.30;;;0.30;;
23060;SDS011;11698;47.690;9.132;2022-11-20T14:24:36;0.40;;;0.40;;
23060;SDS011;11698;47.690;9.132;2022-11-20T14:27:02;1.23;;;0.37;;
23060;SDS011;11698;47.690;9.132;2022-11-20T14:29:29;0.50;;;0.50;;
23060;SDS011;11698;47.690;9.132;2022-11-20T14:31:59;0.32;;;0.32;;
23060;SDS011;11698;47.690;9.132;2022-11-20T14:34:26;1.17;;;0.45;;
23060;SDS011;11698;47.690;9.132;2022-11-20T14:37:00;1.83;;;0.60;;
23060;SDS011;11698;47.690;9.132;2022-11-20T14:39:29;1.17;;;0.50;;
23060;SDS011;11698;47.690;9.132;2022-11-20T14:41:56;1.75;;;0.50;;
23060;SDS011;11698;47.690;9.132;2022-11-20T14:44:30;0.83;;;0.40;;
23060;SDS011;11698;47.690;9.132;2022-11-20T14:46:57;1.00;;;0.40;;
23060;SDS011;11698;47.690;9.132;2022-11-20T14:49:24;1.73;;;0.40;;
23060;SDS011;11698;47.690;9.132;2022-11-20T14:52:00;1.83;;;0.73;;
23060;SDS011;11698;47.690;9.132;2022-11-20T14:54:27;27.35;;;14.77;;
23060;SDS011;11698;47.690;9.132;2022-11-20T14:59:25;2.70;;;1.15;;
23060;SDS011;11698;47.690;9.132;2022-11-20T15:04:23;2.75;;;0.90;;
23060;SDS011;11698;47.690;9.132;2022-11-20T15:06:50;1.70;;;0.70;;
23060;SDS011;11698;47.690;9.132;2022-11-20T15:09:19;0.95;;;0.52;;
23060;SDS011;11698;47.690;9.132;2022-11-20T15:11:59;2.70;;;0.70;;
23060;SDS011;11698;47.690;9.132;2022-11-20T15:14:25;1.33;;;0.60;;
23060;SDS011;11698;47.690;9.132;2022-11-20T15:16:53;2.60;;;0.68;;
23060;SDS011;11698;47.690;9.132;2022-11-20T15:19:23;1.88;;;0.93;;
23060;SDS011;11698;47.690;9.132;2022-11-20T15:21:49;1.00;;;0.70;;
23060;SDS011;11698;47.690;9.132;2022-11-20T15:24:16;1.13;;;0.70;;
23060;SDS011;11698;47.690;9.132;2022-11-20T15:26:42;2.10;;;0.60;;
23060;SDS011;11698;47.690;9.132;2022-11-20T15:29:09;1.05;;;0.77;;
23060;SDS011;11698;47.690;9.132;2022-11-20T15:31:36;4.85;;;1.85;;
23060;SDS011;11698;47.690;9.132;2022-11-20T15:34:08;2.70;;;2.30;;
23060;SDS011;11698;47.690;9.132;2022-11-20T15:36:35;1.55;;;0.80;;
23060;SDS011;11698;47.690;9.132;2022-11-20T15:39:01;19.65;;;9.40;;
23060;SDS011;11698;47.690;9.132;2022-11-20T15:41:27;31.70;;;16.05;;
23060;SDS011;11698;47.690;9.132;2022-11-20T15:43:53;9.48;;;6.57;;
23060;SDS011;11698;47.690;9.132;2022-11-20T15:46:23;51.75;;;27.55;;
23060;SDS011;11698;47.690;9.132;2022-11-20T15:48:51;32.65;;;19.33;;
23060;SDS011;11698;47.690;9.132;2022-11-20T15:51:29;16.63;;;10.25;;
23060;SDS011;11698;47.690;9.132;2022-11-20T15:53:56;18.40;;;12.50;;
23060;SDS011;11698;47.690;9.132;2022-11-20T15:56:23;7.97;;;6.53;;
23060;SDS011;11698;47.690;9.132;2022-11-20T15:58:49;0.40;;;0.40;;
23060;SDS011;11698;47.690;9.132;2022-11-20T16:01:16;1.38;;;0.50;;
23060;SDS011;11698;47.690;9.132;2022-11-20T16:03:42;0.60;;;0.57;;
23060;SDS011;11698;47.690;9.132;2022-11-20T16:06:08;3.05;;;2.75;;
23060;SDS011;11698;47.690;9.132;2022-11-20T16:08:34;0.85;;;0.60;;
23060;SDS011;11698;47.690;9.132;2022-11-20T16:11:01;1.17;;;0.57;;
23060;SDS011;11698;47.690;9.132;2022-11-20T16:13:27;1.23;;;0.70;;
23060;SDS011;11698;47.690;9.132;2022-11-20T16:16:17;4.35;;;2.90;;
23060;SDS011;11698;47.690;9.132;2022-11-20T16:18:44;2.43;;;0.83;;
23060;SDS011;11698;47.690;9.132;2022-11-20T16:21:11;1.33;;;0.52;;
23060;SDS011;11698;47.690;9.132;2022-11-20T16:23:38;1.20;;;0.60;;
23060;SDS011;11698;47.690;9.132;2022-11-20T16:26:11;8.82;;;5.63;;
23060;SDS011;11698;47.690;9.132;2022-11-20T16:28:37;3.25;;;2.90;;
23060;SDS011;11698;47.690;9.132;2022-11-20T16:31:13;4.30;;;2.55;;
23060;SDS011;11698;47.690;9.132;2022-11-20T16:33:39;1.00;;;0.73;;
23060;SDS011;11698;47.690;9.132;2022-11-20T16:36:09;1.67;;;0.75;;